Vanguard, Canada
Current Conditions -  °F | °C
As of 7:29 PM on Thursday 27 Nov 2014 (Local Time) from CYYN Reporting Station
Light Snow Light Snow  
Wind Chill:   Ceiling: 500
Heat Index: 18°   Visibility: 5mi
Dew Point: 18°   Wind: 17mph
Humidity: 100%   Direction: 110°ESE
Pressure: 29.74"   Gusts: NA
Location:  49.9°N, 107.3°W
Report Text: CYYN 280129Z AUTO 11015KT 5SM -SN OVC005 M08/M08 A2974 RMK ICG PAST HR SLP116
Loading
Personal Weather Stations






























Interactive Weather Map New forecast layout! Learn more

10-Day Weather Forecast

Advertisements
Track Severe Weather on mobile